Saint Louis, Missouri
Traffic Map
Current Weather Conditions
Saint Louis, Missouri
Few Clouds
Few Clouds
84°
Feels Like: 87°
Wind Chill: 84° Ceiling: Unl
Heat Index: 87° Visibility: 10mi
Dew Point: 68° Wind: 7mph
Humidity: 58% Direction: 130° (SE)
Pressure: 29.92in Gusts: 0mph
Raw Report DataKCPS 241653Z 13006KT 10SM FEW040 29/20 A2992 RMK AO2 SLP129 T02890200 $
Traffic Incident Summary
Active as of:
Severity:
Category:
InformationThere was an issue retrieving the traffic information for this location. Please try a different location or try again shortly.
Advertisements